createdAt,value
2024-03-12T00:01:36.931Z,21.43
2024-03-12T00:04:24.306Z,17.63
2024-03-12T00:07:11.799Z,18.73
2024-03-12T00:09:59.009Z,19.63
2024-03-12T00:12:51.431Z,20.53
2024-03-12T00:15:39.335Z,17.73
2024-03-12T00:18:35.617Z,18.90
2024-03-12T00:21:23.360Z,17.77
2024-03-12T00:24:14.016Z,19.23
2024-03-12T00:27:01.255Z,17.53
2024-03-12T00:29:56.901Z,17.07
2024-03-12T00:32:44.768Z,20.87
2024-03-12T00:35:36.782Z,20.00
2024-03-12T00:38:24.673Z,18.93
2024-03-12T00:41:11.864Z,19.60
2024-03-12T00:44:00.297Z,19.13
2024-03-12T00:46:49.106Z,18.37
2024-03-12T00:49:36.295Z,19.73
2024-03-12T00:52:24.409Z,18.47
2024-03-12T00:55:14.558Z,21.33
2024-03-12T00:58:02.081Z,21.23
2024-03-12T01:00:50.606Z,19.87
2024-03-12T01:03:38.643Z,20.60
2024-03-12T01:06:26.929Z,20.90
2024-03-12T01:09:14.603Z,19.40
2024-03-12T01:12:03.710Z,19.93
2024-03-12T01:14:51.281Z,19.53
2024-03-12T01:17:41.640Z,23.97
2024-03-12T01:20:29.099Z,19.00
2024-03-12T01:23:16.392Z,21.07
2024-03-12T01:26:08.014Z,21.67
2024-03-12T01:28:56.052Z,23.80
2024-03-12T01:31:45.217Z,22.60
2024-03-12T01:34:34.989Z,24.83
2024-03-12T01:37:25.734Z,22.23
2024-03-12T01:40:21.912Z,22.33
2024-03-12T01:43:09.768Z,24.27
2024-03-12T01:45:58.208Z,24.27
2024-03-12T01:48:45.930Z,22.57
2024-03-12T01:51:34.670Z,25.57
2024-03-12T01:54:22.228Z,25.57
2024-03-12T01:57:09.743Z,21.67
2024-03-12T01:59:57.167Z,25.30
2024-03-12T02:02:46.115Z,25.97
2024-03-12T02:05:33.636Z,27.70
2024-03-12T02:08:20.866Z,25.50
2024-03-12T02:11:08.031Z,28.20
2024-03-12T02:13:55.552Z,29.67
2024-03-12T02:16:43.181Z,25.93
2024-03-12T02:19:30.327Z,28.50
2024-03-12T02:22:17.524Z,29.90
2024-03-12T02:25:13.114Z,30.00
2024-03-12T02:28:00.490Z,28.87
2024-03-12T02:30:48.206Z,29.67
2024-03-12T02:33:35.557Z,29.40
2024-03-12T02:36:23.337Z,29.53
2024-03-12T02:39:12.279Z,28.13
2024-03-12T02:41:59.922Z,32.30
2024-03-12T02:44:47.135Z,28.57
2024-03-12T02:47:34.435Z,32.43
2024-03-12T02:50:23.236Z,30.80
2024-03-12T02:53:10.587Z,31.37
2024-03-12T02:55:57.820Z,36.43
2024-03-12T02:58:45.069Z,33.43
2024-03-12T03:01:32.631Z,34.77
2024-03-12T03:04:22.995Z,34.00
2024-03-12T03:07:12.361Z,31.17
2024-03-12T03:09:59.681Z,31.20
2024-03-12T03:12:46.893Z,33.40
2024-03-12T03:15:34.273Z,29.37
2024-03-12T03:18:21.658Z,30.30
2024-03-12T03:21:10.253Z,34.20
2024-03-12T03:23:59.052Z,28.33
2024-03-12T03:26:46.538Z,34.00
2024-03-12T03:29:36.676Z,30.43
2024-03-12T03:32:25.333Z,33.73
2024-03-12T03:35:14.571Z,32.73
2024-03-12T03:38:03.138Z,36.17
2024-03-12T03:40:50.370Z,33.47
2024-03-12T03:43:37.945Z,31.57
2024-03-12T03:46:25.780Z,35.50
2024-03-12T03:49:13.236Z,30.53
2024-03-12T03:52:00.792Z,36.93
2024-03-12T03:54:49.310Z,34.93
2024-03-12T03:57:37.625Z,35.67
2024-03-12T04:00:24.973Z,34.23
2024-03-12T04:03:12.753Z,32.90
2024-03-12T04:06:00.191Z,32.70
2024-03-12T04:08:48.131Z,36.50
2024-03-12T04:11:35.989Z,33.93
2024-03-12T04:14:26.300Z,34.27
2024-03-12T04:20:18.062Z,36.13
2024-03-12T04:23:05.914Z,34.20
2024-03-12T04:25:54.611Z,37.10
2024-03-12T04:28:42.008Z,33.77
2024-03-12T04:31:29.521Z,34.87
2024-03-12T04:34:16.931Z,36.27
2024-03-12T04:37:05.725Z,37.17
2024-03-12T04:39:52.925Z,37.77
2024-03-12T04:42:41.560Z,35.80
2024-03-12T04:45:29.552Z,37.40
2024-03-12T04:48:16.848Z,40.80
2024-03-12T04:51:04.339Z,37.77
2024-03-12T04:53:51.602Z,45.93
2024-03-12T04:56:39.289Z,39.63
2024-03-12T04:59:28.450Z,40.90
2024-03-12T05:02:16.745Z,34.07
2024-03-12T05:05:04.025Z,36.20
2024-03-12T05:07:52.211Z,37.57
2024-03-12T05:10:39.575Z,38.03
2024-03-12T05:13:27.251Z,39.67
2024-03-12T05:16:14.538Z,40.80
2024-03-12T05:19:06.128Z,38.30
2024-03-12T05:21:53.877Z,36.80
2024-03-12T05:24:42.272Z,38.47
2024-03-12T05:27:38.872Z,40.67
2024-03-12T05:30:26.872Z,39.40
2024-03-12T05:33:16.464Z,41.67
2024-03-12T05:36:10.768Z,41.50
2024-03-12T05:39:05.908Z,38.20
2024-03-12T05:42:11.526Z,40.90
2024-03-12T05:45:17.148Z,38.67
2024-03-12T05:48:11.511Z,39.67
2024-03-12T05:51:00.334Z,40.03
2024-03-12T05:53:47.734Z,44.03
2024-03-12T05:56:38.691Z,42.13
2024-03-12T05:59:27.385Z,41.07
2024-03-12T06:02:14.855Z,41.60
2024-03-12T06:05:02.209Z,42.57
2024-03-12T06:07:53.847Z,41.27
2024-03-12T06:10:41.403Z,45.50
2024-03-12T06:13:28.999Z,44.57
2024-03-12T06:16:20.143Z,39.00
2024-03-12T06:19:07.400Z,41.60
2024-03-12T06:21:55.294Z,38.37
2024-03-12T06:25:14.068Z,39.93
2024-03-12T06:28:27.128Z,40.67
2024-03-12T06:31:20.868Z,40.97
2024-03-12T06:34:14.363Z,42.90
2024-03-12T06:37:02.384Z,44.07
2024-03-12T06:40:08.608Z,40.23
2024-03-12T06:42:56.452Z,41.63
2024-03-12T06:45:44.470Z,41.80
2024-03-12T06:48:32.223Z,40.83
2024-03-12T06:51:19.441Z,39.17
2024-03-12T06:54:06.690Z,41.93
2024-03-12T06:57:15.641Z,40.70
2024-03-12T07:00:10.973Z,41.27
2024-03-12T07:03:07.380Z,40.93
2024-03-12T07:06:10.644Z,42.93
2024-03-12T07:09:13.715Z,38.13
2024-03-12T07:12:08.411Z,41.50
2024-03-12T07:14:58.397Z,38.27
2024-03-12T07:18:05.045Z,39.40
2024-03-12T07:20:56.741Z,43.80
2024-03-12T07:23:54.224Z,36.73
2024-03-12T07:26:47.591Z,41.00
2024-03-12T07:29:35.186Z,41.23
2024-03-12T07:32:28.482Z,37.37
2024-03-12T07:35:15.850Z,42.93
2024-03-12T07:38:05.029Z,41.60
2024-03-12T07:40:53.841Z,43.67
2024-03-12T07:43:46.051Z,40.93
2024-03-12T07:46:35.564Z,43.97
2024-03-12T07:49:38.467Z,41.13
2024-03-12T07:52:38.281Z,37.90
2024-03-12T07:55:28.430Z,41.37
2024-03-12T07:58:22.933Z,43.67
2024-03-12T08:01:41.493Z,43.07
2024-03-12T08:04:28.725Z,37.47
2024-03-12T08:07:34.795Z,38.30
2024-03-12T08:10:41.183Z,41.30
2024-03-12T08:13:36.299Z,37.43
2024-03-12T08:16:58.888Z,36.83
2024-03-12T08:19:54.085Z,37.77
2024-03-12T08:23:00.420Z,40.63
2024-03-12T08:26:21.913Z,36.93
2024-03-12T08:29:17.801Z,40.00
2024-03-12T08:32:24.481Z,37.63
2024-03-12T08:35:16.711Z,38.20
2024-03-12T08:38:22.456Z,34.57
2024-03-12T08:41:47.751Z,37.20
2024-03-12T08:44:34.986Z,37.73
2024-03-12T08:47:28.581Z,37.33
2024-03-12T08:50:35.483Z,38.37
2024-03-12T08:53:23.322Z,38.83
2024-03-12T08:56:10.720Z,41.13
2024-03-12T08:59:17.354Z,38.00
2024-03-12T09:02:24.159Z,34.47
2024-03-12T09:05:37.011Z,33.33
2024-03-12T09:08:33.012Z,33.97
2024-03-12T09:11:23.794Z,38.47
2024-03-12T09:14:43.742Z,33.23
2024-03-12T09:17:32.031Z,34.23
2024-03-12T09:20:38.210Z,32.13
2024-03-12T09:26:42.647Z,35.13
2024-03-12T09:29:33.220Z,35.47
2024-03-12T09:32:20.715Z,28.70
2024-03-12T09:35:17.675Z,31.47
2024-03-12T09:38:20.834Z,31.13
2024-03-12T09:41:11.737Z,30.60
2024-03-12T09:43:59.936Z,31.70
2024-03-12T09:46:48.683Z,29.80
2024-03-12T09:49:36.571Z,27.20
2024-03-12T09:52:27.034Z,29.17
2024-03-12T09:55:16.965Z,29.20
2024-03-12T09:58:05.380Z,29.73
2024-03-12T10:00:54.613Z,29.27
2024-03-12T10:03:42.618Z,32.63
2024-03-12T10:06:30.292Z,28.03
2024-03-12T10:09:19.397Z,31.43
2024-03-12T10:12:10.873Z,28.03
2024-03-12T10:14:58.294Z,31.43
2024-03-12T10:17:59.396Z,30.33
2024-03-12T10:21:02.486Z,30.43
2024-03-12T10:23:50.379Z,26.60
2024-03-12T10:26:37.589Z,29.20
2024-03-12T10:29:24.952Z,35.63
2024-03-12T10:32:20.274Z,29.83
2024-03-12T10:35:20.646Z,28.30
2024-03-12T10:38:08.706Z,28.27
2024-03-12T10:40:58.528Z,28.43
2024-03-12T10:43:47.861Z,28.27
2024-03-12T10:46:35.337Z,27.10
2024-03-12T10:49:27.403Z,28.27
2024-03-12T10:52:25.608Z,25.83
2024-03-12T10:55:22.584Z,25.10
2024-03-12T10:58:11.012Z,28.63
2024-03-12T11:00:59.227Z,26.97
2024-03-12T11:03:46.774Z,26.63
2024-03-12T11:06:38.529Z,25.47
2024-03-12T11:09:30.548Z,24.40
2024-03-12T11:12:20.290Z,24.87
2024-03-12T11:15:11.015Z,24.23
2024-03-12T11:17:58.360Z,26.50
2024-03-12T11:20:45.932Z,24.10
2024-03-12T11:23:33.792Z,23.80
2024-03-12T11:29:19.370Z,26.97
2024-03-12T11:32:12.082Z,26.00
2024-03-12T11:35:03.791Z,25.00
2024-03-12T11:38:00.062Z,23.73
2024-03-12T11:40:48.568Z,26.63
2024-03-12T11:43:41.368Z,23.33
2024-03-12T11:46:45.478Z,23.80
2024-03-12T11:49:33.201Z,24.47
2024-03-12T11:52:23.794Z,25.00
2024-03-12T11:55:13.351Z,26.60
2024-03-12T11:58:01.250Z,25.80
2024-03-12T12:00:54.743Z,24.63
2024-03-12T12:03:42.475Z,22.33
2024-03-12T12:06:32.311Z,25.07
2024-03-12T12:09:19.881Z,23.63
2024-03-12T12:12:09.899Z,27.07
2024-03-12T12:14:57.783Z,24.40
2024-03-12T12:17:47.345Z,33.83
2024-03-12T12:20:36.076Z,26.40
2024-03-12T12:23:24.361Z,24.53
2024-03-12T12:26:22.560Z,23.00
2024-03-12T12:29:11.026Z,22.03
2024-03-12T12:31:59.232Z,23.07
2024-03-12T12:34:47.380Z,24.27
2024-03-12T12:37:35.007Z,20.97
2024-03-12T12:40:23.246Z,23.10
2024-03-12T12:43:21.163Z,22.47
2024-03-12T12:46:18.036Z,21.50
2024-03-12T12:49:05.659Z,21.17
2024-03-12T12:51:55.632Z,20.23
2024-03-12T12:54:44.081Z,20.37
2024-03-12T12:57:36.095Z,19.73
2024-03-12T13:00:24.707Z,23.67
2024-03-12T13:03:17.872Z,23.37
2024-03-12T13:06:20.036Z,24.03
2024-03-12T13:09:26.700Z,23.63
2024-03-12T13:12:22.440Z,21.47
2024-03-12T13:15:50.815Z,22.27
2024-03-12T13:18:40.494Z,21.50
2024-03-12T13:21:35.703Z,19.97
2024-03-12T13:24:23.140Z,22.57
2024-03-12T13:27:10.541Z,22.40
2024-03-12T13:29:59.642Z,22.23
2024-03-12T13:32:48.127Z,20.93
2024-03-12T13:35:35.410Z,24.73
2024-03-12T13:38:40.502Z,21.80
2024-03-12T13:41:27.940Z,21.27
2024-03-12T13:44:20.326Z,19.00
2024-03-12T13:47:19.765Z,21.03
2024-03-12T13:50:08.533Z,23.60
2024-03-12T13:52:56.302Z,21.87
2024-03-12T13:55:43.504Z,21.03
2024-03-12T13:58:31.303Z,20.53
2024-03-12T14:01:19.052Z,23.63
2024-03-12T14:04:07.884Z,25.80
2024-03-12T14:06:55.804Z,28.60
2024-03-12T14:09:45.445Z,25.47
2024-03-12T14:12:33.461Z,26.77
2024-03-12T14:15:21.882Z,25.37
2024-03-12T14:18:10.916Z,25.83
2024-03-12T14:20:58.253Z,25.63
2024-03-12T14:23:46.231Z,28.70
2024-03-12T14:26:33.558Z,29.07
2024-03-12T14:29:20.881Z,30.97
2024-03-12T14:32:09.027Z,27.50
2024-03-12T14:34:56.684Z,26.80
2024-03-12T14:37:47.172Z,26.87
2024-03-12T14:40:34.497Z,23.13
2024-03-12T14:43:21.818Z,24.57
2024-03-12T14:46:09.343Z,22.53
2024-03-12T14:48:57.443Z,23.60
2024-03-12T14:51:44.797Z,25.83
2024-03-12T14:54:32.006Z,22.50
2024-03-12T14:57:19.245Z,23.70
2024-03-12T15:00:11.624Z,21.57
2024-03-12T15:02:59.021Z,27.30
2024-03-12T15:05:48.648Z,28.60
2024-03-12T15:08:35.957Z,25.30
2024-03-12T15:11:23.568Z,24.93
2024-03-12T15:14:11.122Z,26.50
2024-03-12T15:16:58.985Z,25.63
2024-03-12T15:19:49.352Z,24.97
2024-03-12T15:22:36.642Z,25.53
2024-03-12T15:25:24.652Z,25.73
2024-03-12T15:28:12.254Z,32.40
2024-03-12T15:30:59.641Z,31.17
2024-03-12T15:33:47.269Z,26.97
2024-03-12T15:36:34.673Z,27.53
2024-03-12T15:39:23.909Z,27.27
2024-03-12T15:42:13.724Z,30.37
2024-03-12T15:45:05.494Z,30.10
2024-03-12T15:47:53.766Z,30.97
2024-03-12T15:50:41.540Z,27.77
2024-03-12T15:53:29.192Z,30.67
2024-03-12T15:56:16.635Z,34.10
2024-03-12T15:59:04.006Z,29.13
2024-03-12T16:01:51.964Z,31.93
2024-03-12T16:04:39.321Z,32.63
2024-03-12T16:07:26.696Z,30.37
2024-03-12T16:10:14.600Z,24.80
2024-03-12T16:13:03.245Z,32.73
2024-03-12T16:15:53.376Z,30.77
2024-03-12T16:18:40.681Z,36.60
2024-03-12T16:21:28.239Z,35.93
2024-03-12T16:24:17.117Z,34.53
2024-03-12T16:27:05.761Z,29.37
2024-03-12T16:29:53.079Z,33.63
2024-03-12T16:32:41.652Z,30.63
2024-03-12T16:35:29.135Z,33.33
2024-03-12T16:38:16.482Z,37.47
2024-03-12T16:41:07.708Z,33.93
2024-03-12T16:43:56.158Z,32.87
2024-03-12T16:46:45.068Z,33.33
2024-03-12T16:49:38.874Z,38.20
2024-03-12T16:52:26.330Z,37.53
2024-03-12T16:55:15.347Z,35.93
2024-03-12T16:58:03.287Z,34.00
2024-03-12T17:01:09.943Z,35.77
2024-03-12T17:03:57.887Z,33.93
2024-03-12T17:06:46.538Z,34.60
2024-03-12T17:09:34.119Z,31.87
2024-03-12T17:12:24.788Z,36.33
2024-03-12T17:15:15.678Z,35.00
2024-03-12T17:18:03.210Z,32.27
2024-03-12T17:20:50.726Z,35.43
2024-03-12T17:23:59.890Z,34.23
2024-03-12T17:27:16.557Z,34.27
2024-03-12T17:30:26.016Z,34.43
2024-03-12T17:33:16.283Z,32.73
2024-03-12T17:37:06.968Z,34.07
2024-03-12T17:39:59.436Z,33.30
2024-03-12T17:42:47.372Z,35.07
2024-03-12T17:45:35.275Z,31.90
2024-03-12T17:48:23.680Z,32.70
2024-03-12T17:51:12.096Z,33.53
2024-03-12T17:53:59.498Z,37.50
2024-03-12T17:56:48.458Z,35.23
2024-03-12T18:00:30.659Z,33.73
2024-03-12T18:03:26.777Z,32.03
2024-03-12T18:06:42.641Z,33.63
2024-03-12T18:10:09.999Z,35.17
2024-03-12T18:13:15.469Z,36.53
2024-03-12T18:16:14.869Z,38.53
2024-03-12T18:19:08.062Z,37.33
2024-03-12T18:21:56.088Z,38.53
2024-03-12T18:25:15.612Z,39.30
2024-03-12T18:28:22.052Z,38.73
2024-03-12T18:34:41.557Z,35.00
2024-03-12T18:37:41.083Z,41.00
2024-03-12T18:40:28.733Z,61.93
2024-03-12T18:43:16.302Z,36.77
2024-03-12T18:46:04.675Z,39.50
2024-03-12T18:48:53.443Z,36.13
2024-03-12T18:51:41.157Z,37.30
2024-03-12T18:54:40.501Z,42.47
2024-03-12T18:57:30.898Z,38.90
2024-03-12T19:00:40.022Z,39.67
2024-03-12T19:03:40.505Z,38.57
2024-03-12T19:06:29.033Z,40.20
2024-03-12T19:09:20.996Z,36.53
2024-03-12T19:12:30.986Z,37.43
2024-03-12T19:18:32.175Z,35.53
2024-03-12T19:21:20.949Z,33.93
2024-03-12T19:24:08.492Z,35.67
2024-03-12T19:26:57.820Z,31.77
2024-03-12T19:29:45.337Z,37.57
2024-03-12T19:32:39.451Z,38.67
2024-03-12T19:35:27.475Z,36.67
2024-03-12T19:38:15.027Z,37.77
2024-03-12T19:41:02.894Z,40.80
2024-03-12T19:43:54.526Z,35.93
2024-03-12T19:46:42.199Z,33.90
2024-03-12T19:49:30.349Z,38.03
2024-03-12T19:52:19.002Z,35.67
2024-03-12T19:55:06.544Z,37.10
2024-03-12T19:57:57.756Z,37.60
2024-03-12T20:00:46.072Z,37.03
2024-03-12T20:03:34.223Z,40.93
2024-03-12T20:06:23.082Z,36.20
2024-03-12T20:09:26.590Z,39.93
2024-03-12T20:12:14.306Z,34.53
2024-03-12T20:15:05.720Z,40.23
2024-03-12T20:17:53.157Z,38.00
2024-03-12T20:20:40.677Z,39.77
2024-03-12T20:23:28.166Z,42.47
2024-03-12T20:26:17.616Z,51.43
2024-03-12T20:29:05.713Z,44.23
2024-03-12T20:31:53.177Z,41.77
2024-03-12T20:34:42.708Z,45.00
2024-03-12T20:37:30.258Z,47.53
2024-03-12T20:40:20.083Z,43.73
2024-03-12T20:43:07.854Z,45.60
2024-03-12T20:45:56.391Z,44.93
2024-03-12T20:48:43.759Z,46.93
2024-03-12T20:51:31.401Z,41.80
2024-03-12T20:54:19.012Z,45.83
2024-03-12T20:57:06.954Z,47.20
2024-03-12T20:59:55.780Z,47.50
2024-03-12T21:02:46.995Z,45.33
2024-03-12T21:05:36.272Z,44.33
2024-03-12T21:08:24.063Z,45.40
2024-03-12T21:11:11.357Z,44.27
2024-03-12T21:13:58.627Z,44.43
2024-03-12T21:16:50.122Z,48.53
2024-03-12T21:19:38.402Z,45.43
2024-03-12T21:22:27.086Z,42.63
2024-03-12T21:25:14.620Z,44.43
2024-03-12T21:28:02.336Z,45.30
2024-03-12T21:30:49.811Z,45.97
2024-03-12T21:33:38.176Z,49.03
2024-03-12T21:39:27.443Z,46.97
2024-03-12T21:42:17.600Z,50.33
2024-03-12T21:45:07.412Z,45.67
2024-03-12T21:47:54.881Z,46.30
2024-03-12T21:50:42.321Z,44.83
2024-03-12T21:53:29.702Z,45.50
2024-03-12T21:56:17.355Z,46.67
2024-03-12T21:59:05.875Z,194.23
2024-03-12T22:01:54.518Z,64.07
2024-03-12T22:05:02.075Z,46.87
2024-03-12T22:07:52.166Z,42.17
2024-03-12T22:10:39.444Z,41.97
2024-03-12T22:13:45.922Z,41.33
2024-03-12T22:16:51.363Z,38.47
2024-03-12T22:19:42.025Z,38.13
2024-03-12T22:22:32.542Z,41.80
2024-03-12T22:25:21.121Z,44.37
2024-03-12T22:28:09.699Z,38.70
2024-03-12T22:30:57.373Z,42.57
2024-03-12T22:33:45.319Z,37.80
2024-03-12T22:36:33.036Z,40.73
2024-03-12T22:39:20.596Z,42.27
2024-03-12T22:42:08.581Z,38.77
2024-03-12T22:44:58.676Z,42.97
2024-03-12T22:47:46.487Z,39.20
2024-03-12T22:50:34.587Z,36.03
2024-03-12T22:53:28.117Z,36.60
2024-03-12T22:56:23.514Z,37.70
2024-03-12T22:59:30.464Z,34.30
2024-03-12T23:02:19.606Z,34.30
2024-03-12T23:05:09.589Z,32.47
2024-03-12T23:07:58.659Z,33.50
2024-03-12T23:10:46.679Z,37.43
2024-03-12T23:13:38.281Z,32.60
2024-03-12T23:16:26.208Z,31.33
2024-03-12T23:19:15.163Z,30.40
2024-03-12T23:22:02.749Z,31.10
2024-03-12T23:28:00.919Z,31.33
2024-03-12T23:30:48.822Z,29.10
2024-03-12T23:33:36.406Z,29.20
2024-03-12T23:36:42.527Z,32.43
2024-03-12T23:39:30.427Z,31.17
2024-03-12T23:42:38.866Z,30.20
2024-03-12T23:46:08.290Z,29.53
2024-03-12T23:49:14.689Z,26.83
2024-03-12T23:52:22.217Z,32.93
2024-03-12T23:55:34.551Z,30.57
2024-03-12T23:58:40.915Z,29.63
